Time;durP1;ratioP1;P1;durP2;ratioP2;P2;SDS_P1;SDS_P2;PMS_P1;PMS_P2;Temp;Humidity;BMP_temperature;BMP_pressure;BME280_temperature;BME280_humidity;BME280_pressure;Samples;Min_cycle;Max_cycle;Signal;HPM_P1;HPM_P2
2023/03/20 00:00:03;;;;;;;7.80;5.47;;;8.30;99.90;;;8.92;100.00;98371.47;4998399;28;21301;-77
2023/03/20 00:02:34;;;;;;;9.53;5.23;;;8.30;99.90;;;8.94;100.00;98369.50;4998701;28;20478;-77
2023/03/20 00:05:18;;;;;;;9.30;5.10;;;8.30;99.90;;;8.94;100.00;98369.50;4996405;28;20594;-77
2023/03/20 00:07:49;;;;;;;6.13;5.50;;;8.30;99.90;;;8.93;100.00;98371.28;4999187;28;20458;-77
2023/03/20 00:10:21;;;;;;;6.33;5.37;;;8.30;99.90;;;8.93;100.00;98379.09;4996949;28;20525;-77
2023/03/20 00:12:56;;;;;;;9.90;5.10;;;8.30;99.90;;;8.95;100.00;98373.72;4997408;28;21012;-77
2023/03/20 00:15:31;;;;;;;12.33;5.50;;;8.30;99.90;;;8.95;100.00;98371.13;4999900;28;20820;-77
2023/03/20 00:18:01;;;;;;;7.57;5.43;;;8.40;99.90;;;8.95;100.00;98371.94;4999678;28;20467;-77
2023/03/20 00:20:31;;;;;;;6.70;4.73;;;8.30;99.90;;;8.94;100.00;98383.34;4997437;28;20502;-77
2023/03/20 00:23:03;;;;;;;7.70;5.30;;;8.30;99.90;;;8.94;100.00;98379.91;4998222;28;20516;-77
2023/03/20 00:25:35;;;;;;;8.43;5.57;;;8.30;99.90;;;8.95;100.00;98381.56;4998660;28;20546;-77
2023/03/20 00:28:39;;;;;;;13.90;6.53;;;8.30;99.90;;;8.95;100.00;98381.56;5002243;28;20471;-77
2023/03/20 00:31:25;;;;;;;11.70;6.30;;;8.30;99.90;;;8.96;100.00;98377.94;5002194;28;20486;-76
2023/03/20 00:33:59;;;;;;;14.20;6.80;;;8.30;99.90;;;8.96;100.00;98378.75;5001631;28;20462;-77
2023/03/20 00:36:29;;;;;;;24.80;7.03;;;8.30;99.90;;;8.98;100.00;98387.25;5001279;28;20463;-77
2023/03/20 00:38:59;;;;;;;7.37;5.77;;;8.30;99.90;;;8.98;100.00;98389.84;5001180;28;20559;-77
2023/03/20 00:41:33;;;;;;;13.80;6.63;;;8.30;99.90;;;9.00;100.00;98389.66;5001807;28;20502;-76
2023/03/20 00:44:19;;;;;;;10.97;6.27;;;8.30;99.90;;;9.00;100.00;98389.66;5001755;28;20962;-77
2023/03/20 00:46:53;;;;;;;10.00;5.73;;;8.40;99.90;;;9.00;100.00;98389.66;4999398;28;20539;-77
2023/03/20 00:49:28;;;;;;;14.47;6.10;;;8.40;99.90;;;9.01;100.00;98386.91;4999611;28;20550;-76
2023/03/20 00:52:00;;;;;;;12.23;6.67;;;8.40;99.90;;;9.02;100.00;98383.28;5002445;28;20544;-77
2023/03/20 00:54:30;;;;;;;11.80;5.67;;;8.40;99.90;;;9.04;100.00;98380.53;5000377;28;20643;-77
2023/03/20 00:57:02;;;;;;;13.13;5.73;;;8.40;99.90;;;9.04;100.00;98385.75;5000262;28;20835;-77
2023/03/20 00:59:38;;;;;;;9.63;5.73;;;8.40;99.90;;;9.05;100.00;98392.59;5003098;28;20545;-77
2023/03/20 01:02:11;;;;;;;10.40;6.33;;;8.50;99.90;;;9.06;100.00;98389.00;5000509;28;20463;-77
2023/03/20 01:04:42;;;;;;;9.20;6.03;;;8.40;99.90;;;9.07;100.00;98393.22;5000254;28;20557;-77
2023/03/20 01:07:15;;;;;;;14.27;6.27;;;8.50;99.90;;;9.07;100.00;98390.63;5002933;28;21017;-77
2023/03/20 01:09:44;;;;;;;10.97;6.37;;;8.50;99.90;;;9.08;100.00;98392.25;5004842;28;20528;-77
2023/03/20 01:12:16;;;;;;;12.97;5.73;;;8.50;99.90;;;9.08;100.00;98394.88;5003481;28;20513;-77
2023/03/20 01:14:54;;;;;;;11.67;6.47;;;8.50;99.90;;;9.08;100.00;98397.47;5003659;28;20562;-76
2023/03/20 01:17:26;;;;;;;10.73;6.13;;;8.50;99.90;;;9.09;100.00;98393.91;5004555;28;20566;-77
2023/03/20 01:19:55;;;;;;;11.90;5.70;;;8.50;99.90;;;9.07;100.00;98406.28;5005869;28;20459;-77
2023/03/20 01:22:25;;;;;;;9.03;5.93;;;8.60;99.90;;;9.08;100.00;98407.91;5006611;28;20528;-76
2023/03/20 01:24:55;;;;;;;18.10;6.30;;;8.50;99.90;;;9.10;100.00;98406.75;5004481;28;20547;-77
2023/03/20 01:27:25;;;;;;;8.27;5.50;;;8.50;99.90;;;9.10;100.00;98416.38;5001873;28;20459;-77
2023/03/20 01:29:54;;;;;;;9.40;6.20;;;8.50;99.90;;;9.12;100.00;98418.81;4999556;28;20583;-77
2023/03/20 01:32:25;;;;;;;12.80;6.33;;;8.50;99.90;;;9.12;100.00;98424.84;4998985;28;20871;-77
2023/03/20 01:34:54;;;;;;;8.23;5.20;;;8.50;99.90;;;9.11;100.00;98428.44;4999736;28;20521;-76
2023/03/20 01:37:27;;;;;;;9.40;5.60;;;8.60;99.90;;;9.12;100.00;98424.84;4999745;28;20557;-77
2023/03/20 01:39:57;;;;;;;8.50;5.50;;;8.60;99.90;;;9.13;100.00;98425.69;4999827;28;20876;-77
2023/03/20 01:42:26;;;;;;;5.70;4.50;;;8.60;99.90;;;9.11;100.00;98420.63;5001135;28;20541;-79
2023/03/20 01:44:57;;;;;;;13.10;5.20;;;8.60;99.90;;;9.13;100.00;98425.69;5000973;28;20491;-77
2023/03/20 01:47:27;;;;;;;7.47;5.10;;;8.50;99.90;;;9.13;100.00;98431.69;4999939;28;20529;-77
2023/03/20 01:50:45;;;;;;;7.57;5.40;;;8.60;99.90;;;9.14;100.00;98428.09;5000499;28;20487;-77
2023/03/20 01:53:20;;;;;;;12.63;5.90;;;8.60;99.90;;;9.14;100.00;98432.50;4999794;28;21056;-77
2023/03/20 01:55:54;;;;;;;13.23;5.47;;;8.50;99.90;;;9.14;100.00;98428.09;4999667;28;20462;-77
2023/03/20 01:58:35;;;;;;;8.10;5.17;;;8.60;99.90;;;9.13;100.00;98420.47;5000078;28;20460;-77
2023/03/20 02:01:12;;;;;;;8.97;5.60;;;8.60;99.90;;;9.12;100.00;98427.47;4999122;28;20482;-77
2023/03/20 02:03:48;;;;;;;8.97;4.77;;;8.60;99.90;;;9.11;100.00;98428.44;5000973;28;20466;-77
2023/03/20 02:06:21;;;;;;;8.00;4.37;;;8.60;99.90;;;9.12;100.00;98435.28;5001322;28;20458;-77
2023/03/20 02:08:53;;;;;;;7.47;4.43;;;8.60;99.90;;;9.14;100.00;98438.53;5002402;28;20457;-77
2023/03/20 02:11:26;;;;;;;8.90;4.43;;;8.60;99.90;;;9.13;100.00;98442.13;5001434;28;20582;-77
2023/03/20 02:14:00;;;;;;;13.33;5.43;;;8.60;99.90;;;9.13;100.00;98441.34;5000948;28;20498;-77
2023/03/20 02:16:30;;;;;;;6.73;4.60;;;8.60;99.90;;;9.12;100.00;98435.28;5003414;28;20468;-77
2023/03/20 02:19:00;;;;;;;7.07;4.80;;;8.60;99.90;;;9.12;100.00;98435.28;5001585;28;20463;-77
2023/03/20 02:22:42;;;;;;;11.27;4.80;;;8.60;99.90;;;9.13;100.00;98430.91;5001794;28;20526;-77
2023/03/20 02:25:57;;;;;;;12.93;5.20;;;8.60;99.90;;;9.12;100.00;98435.28;4978532;28;20464;-77
2023/03/20 02:29:25;;;;;;;11.33;5.10;;;8.60;99.90;;;9.13;100.00;98425.69;4999253;28;20467;-77
2023/03/20 02:32:42;;;;;;;8.80;4.17;;;8.60;99.90;;;9.12;100.00;98417.03;4999213;28;20470;-77
2023/03/20 02:36:22;;;;;;;10.40;4.87;;;8.60;99.90;;;9.15;100.00;98413.25;4998634;28;20450;-77
2023/03/20 02:39:47;;;;;;;7.40;5.20;;;8.60;99.90;;;9.13;100.00;98405.59;4999430;28;20478;-77
2023/03/20 02:42:32;;;;;;;8.17;4.53;;;8.60;99.90;;;9.13;100.00;98400.38;4998971;28;20471;-76
2023/03/20 02:45:14;;;;;;;9.73;4.60;;;8.60;99.90;;;9.14;100.00;98395.97;4999760;28;20477;-77
2023/03/20 02:47:56;;;;;;;11.90;5.57;;;8.60;99.90;;;9.14;100.00;98394.19;4997459;28;20462;-77
2023/03/20 02:50:38;;;;;;;10.27;5.60;;;8.60;99.90;;;9.14;100.00;98395.97;4998643;28;20472;-77
2023/03/20 02:53:30;;;;;;;22.63;4.93;;;8.60;99.90;;;9.12;100.00;98401.38;4999564;28;20569;-77
2023/03/20 02:56:12;;;;;;;10.70;5.07;;;8.70;99.90;;;9.10;100.00;98396.31;5000021;28;20948;-77
2023/03/20 02:58:51;;;;;;;7.43;4.80;;;8.70;99.90;;;9.10;100.00;98398.94;4998929;28;20463;-77
2023/03/20 03:01:32;;;;;;;9.97;5.50;;;8.60;99.90;;;9.09;100.00;98399.91;5000132;28;20715;-77
2023/03/20 03:04:09;;;;;;;8.73;4.30;;;8.60;99.90;;;9.10;100.00;98406.75;5000749;28;20463;-77
2023/03/20 03:06:44;;;;;;;9.30;5.13;;;8.60;99.90;;;9.10;100.00;98405.94;5000431;28;20470;-77
2023/03/20 03:09:21;;;;;;;9.83;5.83;;;8.60;99.90;;;9.12;100.00;98411.00;4999506;28;21006;-77
2023/03/20 03:11:59;;;;;;;8.33;5.03;;;8.60;99.90;;;9.14;100.00;98414.25;5001001;28;20469;-77
2023/03/20 03:14:37;;;;;;;12.27;5.70;;;8.60;99.90;;;9.15;100.00;98405.44;5001909;28;20893;-77
2023/03/20 03:17:11;;;;;;;7.57;4.60;;;8.60;99.90;;;9.16;100.00;98415.72;5000666;28;20467;-77
2023/03/20 03:19:47;;;;;;;7.40;5.50;;;8.60;99.90;;;9.15;100.00;98419.31;4999161;28;20882;-77
2023/03/20 03:22:20;;;;;;;9.67;5.43;;;8.60;99.90;;;9.17;100.00;98416.50;4995737;28;20475;-77
2023/03/20 03:24:52;;;;;;;10.03;5.13;;;8.60;99.90;;;9.15;100.00;98424.53;4999328;28;20525;-77
2023/03/20 03:27:29;;;;;;;6.30;4.87;;;8.60;99.90;;;9.17;100.00;98429.56;4997168;28;21018;-77
2023/03/20 03:30:06;;;;;;;6.20;5.10;;;8.60;99.90;;;9.17;100.00;98419.94;4998122;28;20490;-77
2023/03/20 03:32:47;;;;;;;5.87;4.60;;;8.60;99.90;;;9.18;100.00;98420.75;4998718;28;20470;-77
2023/03/20 03:35:23;;;;;;;10.83;5.10;;;8.70;99.90;;;9.19;100.00;98414.56;4998237;28;21187;-77
2023/03/20 03:38:01;;;;;;;6.53;5.30;;;8.70;99.90;;;9.21;100.00;98409.97;4999188;28;20459;-77
2023/03/20 03:40:42;;;;;;;10.87;5.27;;;8.60;99.90;;;9.21;100.00;98409.97;4997891;28;20444;-77
2023/03/20 03:43:24;;;;;;;6.87;4.90;;;8.60;99.90;;;9.21;100.00;98410.78;4996448;28;20509;-77
2023/03/20 03:46:01;;;;;;;7.40;5.30;;;8.60;99.90;;;9.22;100.00;98412.44;4996411;28;20562;-77
2023/03/20 03:48:38;;;;;;;7.70;5.00;;;8.60;99.90;;;9.22;100.00;98409.81;4996437;28;20507;-77
2023/03/20 03:51:14;;;;;;;6.07;4.73;;;8.60;99.90;;;9.22;100.00;98420.25;4998932;28;20462;-77
2023/03/20 03:53:53;;;;;;;6.53;5.10;;;8.60;99.90;;;9.21;100.00;98413.41;4997905;28;20885;-77
2023/03/20 03:56:28;;;;;;;7.13;4.97;;;8.70;99.90;;;9.19;100.00;98420.59;5001097;28;20491;-77
2023/03/20 03:59:08;;;;;;;6.60;5.00;;;8.70;99.90;;;9.19;100.00;98425.00;5002236;28;20466;-77
2023/03/20 04:01:43;;;;;;;9.73;5.73;;;8.70;99.90;;;9.19;100.00;98427.59;5001736;28;20562;-77
2023/03/20 04:04:16;;;;;;;9.07;5.47;;;8.70;99.90;;;9.18;100.00;98423.34;5000454;28;20549;-77
2023/03/20 04:06:48;;;;;;;9.10;5.30;;;8.70;99.90;;;9.19;100.00;98425.81;5001059;28;20454;-76
2023/03/20 04:09:19;;;;;;;11.30;5.20;;;8.70;99.90;;;9.17;100.00;98427.75;5002357;28;20465;-77
2023/03/20 04:11:52;;;;;;;7.30;5.20;;;8.70;99.90;;;9.16;100.00;98436.59;4999971;28;20463;-77
2023/03/20 04:14:22;;;;;;;8.50;5.00;;;8.70;99.90;;;9.18;100.00;98436.41;5001855;28;21786;-77
2023/03/20 04:16:52;;;;;;;5.80;4.20;;;8.70;99.90;;;9.20;100.00;98437.84;4996401;28;20468;-77
2023/03/20 04:19:22;;;;;;;7.67;5.80;;;8.70;99.90;;;9.20;100.00;98440.47;4996683;28;20471;-77
2023/03/20 04:21:54;;;;;;;8.83;5.73;;;8.70;99.90;;;9.20;100.00;98437.84;4997210;28;20479;-77
2023/03/20 04:24:22;;;;;;;9.33;4.60;;;8.70;99.90;;;9.20;100.00;98431.84;4998095;28;20530;-77
2023/03/20 04:26:51;;;;;;;11.40;5.57;;;8.60;99.90;;;9.22;100.00;98429.88;4997517;28;20464;-77
2023/03/20 04:29:23;;;;;;;9.90;5.23;;;8.60;99.90;;;9.22;100.00;98425.47;4996836;28;20504;-77
2023/03/20 04:31:53;;;;;;;7.40;4.83;;;8.70;99.90;;;9.22;100.00;98428.09;4998172;28;20474;-77
2023/03/20 04:34:23;;;;;;;6.80;5.40;;;8.70;99.90;;;9.21;100.00;98433.44;4994905;28;21087;-74
2023/03/20 04:36:53;;;;;;;6.97;5.17;;;8.70;99.90;;;9.22;100.00;98437.69;4995249;28;20474;-77
2023/03/20 04:39:24;;;;;;;8.47;4.93;;;8.70;99.90;;;9.21;100.00;98439.50;4995197;28;21018;-78
2023/03/20 04:41:54;;;;;;;10.47;4.73;;;8.80;99.90;;;9.22;100.00;98435.91;4995491;28;20475;-77
2023/03/20 04:44:26;;;;;;;8.13;5.40;;;8.80;99.90;;;9.25;100.00;98434.75;4996841;28;20460;-74
2023/03/20 04:46:56;;;;;;;23.37;5.93;;;8.80;99.90;;;9.25;100.00;98425.13;4994829;28;20976;-78
2023/03/20 04:49:26;;;;;;;10.13;5.50;;;8.80;99.90;;;9.26;100.00;98424.16;4995529;28;20510;-77
2023/03/20 04:51:55;;;;;;;7.17;5.27;;;8.70;99.90;;;9.27;100.00;98435.38;4992482;28;20469;-77
2023/03/20 04:54:25;;;;;;;6.50;4.90;;;8.80;99.90;;;9.28;100.00;98439.63;4995020;28;20552;-76
2023/03/20 04:56:55;;;;;;;10.13;5.70;;;8.80;99.90;;;9.27;100.00;98438.81;4995250;28;20467;-77
2023/03/20 04:59:28;;;;;;;7.70;4.90;;;8.80;99.90;;;9.28;100.00;98445.66;4993732;28;20545;-77
2023/03/20 05:01:57;;;;;;;26.23;5.40;;;8.80;99.90;;;9.28;100.00;98450.88;4998164;28;20506;-77
2023/03/20 05:04:28;;;;;;;8.70;5.00;;;8.80;99.90;;;9.29;100.00;98462.13;4996854;28;20478;-77
2023/03/20 05:06:57;;;;;;;6.20;4.70;;;8.70;99.90;;;9.29;100.00;98468.19;4998986;28;20463;-77
2023/03/20 05:09:27;;;;;;;7.83;5.47;;;8.70;99.90;;;9.28;100.00;98460.50;4996993;28;20463;-77
2023/03/20 05:11:57;;;;;;;5.97;4.70;;;8.80;99.90;;;9.28;100.00;98463.94;4997638;28;21090;-77
2023/03/20 05:14:29;;;;;;;28.87;5.57;;;8.80;99.90;;;9.28;100.00;98463.94;4999209;28;20507;-77
2023/03/20 05:17:00;;;;;;;8.63;5.17;;;8.80;99.90;;;9.28;100.00;98466.53;5000946;28;20463;-77
2023/03/20 05:19:29;;;;;;;6.13;4.60;;;8.80;99.90;;;9.29;100.00;98468.19;5001095;28;20471;-77
2023/03/20 05:22:00;;;;;;;10.80;5.20;;;8.80;99.90;;;9.30;100.00;98475.00;5001009;28;20470;-77
2023/03/20 05:24:30;;;;;;;9.57;5.77;;;8.70;99.90;;;9.32;100.00;98477.47;5000504;28;20470;-77
2023/03/20 05:26:59;;;;;;;6.57;4.80;;;8.80;99.90;;;9.31;100.00;98479.25;5000504;28;20474;-77
2023/03/20 05:29:31;;;;;;;6.00;4.80;;;8.80;99.90;;;9.32;100.00;98478.28;5003247;28;20549;-77
2023/03/20 05:32:00;;;;;;;6.60;4.33;;;8.80;99.90;;;9.32;100.00;98477.47;5003782;28;20554;-77
2023/03/20 05:34:30;;;;;;;7.93;5.43;;;8.80;99.90;;;9.32;100.00;98472.25;5002884;28;20573;-77
2023/03/20 05:36:59;;;;;;;8.43;5.80;;;8.80;99.90;;;9.33;100.00;98469.47;5002344;28;20466;-77
2023/03/20 05:39:30;;;;;;;8.53;6.23;;;8.80;99.90;;;9.33;100.00;98459.03;5004767;28;20506;-77
2023/03/20 05:42:02;;;;;;;21.10;11.60;;;8.80;99.90;;;9.34;100.00;98473.69;5004802;28;20966;-77
2023/03/20 05:44:33;;;;;;;19.97;10.13;;;8.80;99.90;;;9.35;100.00;98472.72;5002325;28;20883;-77
2023/03/20 05:47:03;;;;;;;21.40;11.37;;;8.80;99.90;;;9.36;100.00;98479.56;5004965;28;20459;-77
2023/03/20 05:49:33;;;;;;;19.73;11.10;;;8.90;99.90;;;9.37;100.00;98481.19;4999053;28;20510;-77
2023/03/20 05:52:03;;;;;;;24.93;13.37;;;8.80;99.90;;;9.38;100.00;98474.97;4999112;28;20554;-77
2023/03/20 05:54:34;;;;;;;18.17;10.10;;;8.80;99.90;;;9.38;100.00;98482.81;4999147;28;20528;-77
2023/03/20 05:57:03;;;;;;;18.47;11.37;;;8.80;99.90;;;9.40;100.00;98475.66;5002838;28;20485;-77
2023/03/20 05:59:35;;;;;;;22.63;11.83;;;8.80;99.90;;;9.40;100.00;98475.66;4998463;28;20916;-77
2023/03/20 06:02:04;;;;;;;18.40;11.13;;;8.80;99.90;;;9.41;100.00;98472.03;5000711;28;20471;-77
2023/03/20 06:04:34;;;;;;;20.23;10.93;;;8.80;99.90;;;9.42;100.00;98463.22;4999671;28;20468;-77
2023/03/20 06:07:05;;;;;;;21.10;10.07;;;8.80;99.90;;;9.43;100.00;98472.69;4998990;28;20460;-77
2023/03/20 06:09:35;;;;;;;20.67;11.20;;;8.80;99.90;;;9.44;100.00;98478.72;4998912;28;20471;-77
2023/03/20 06:12:07;;;;;;;23.20;11.93;;;8.80;99.90;;;9.44;100.00;98476.13;5000374;28;20843;-77
2023/03/20 06:14:39;;;;;;;16.70;11.23;;;8.90;99.90;;;9.44;100.00;98492.56;5001207;28;20866;-77
2023/03/20 06:17:07;;;;;;;21.33;11.43;;;8.90;99.90;;;9.44;100.00;98479.53;4999810;28;20474;-77
2023/03/20 06:19:37;;;;;;;26.57;10.70;;;8.90;99.90;;;9.44;100.00;98470.91;4998522;28;20560;-77
2023/03/20 06:22:07;;;;;;;25.20;10.20;;;8.90;99.90;;;9.44;100.00;98476.13;4998681;28;20498;-77
2023/03/20 06:24:37;;;;;;;16.80;10.60;;;8.80;99.90;;;9.45;100.00;98480.34;4998550;28;20538;-77
2023/03/20 06:27:07;;;;;;;17.90;10.67;;;8.80;99.90;;;9.44;100.00;98476.91;4995580;28;20463;-76
2023/03/20 06:29:38;;;;;;;20.97;9.87;;;8.90;99.90;;;9.45;100.00;98478.53;4997013;28;20803;-77
2023/03/20 06:32:09;;;;;;;19.47;10.37;;;8.90;99.90;;;9.45;100.00;98478.53;4997709;28;20479;-77
2023/03/20 06:34:40;;;;;;;16.90;9.03;;;8.90;99.90;;;9.46;100.00;98472.34;4997810;28;20569;-77
2023/03/20 06:37:10;;;;;;;23.93;11.77;;;8.90;99.90;;;9.47;100.00;98467.94;4997413;28;20479;-77
2023/03/20 06:39:41;;;;;;;19.80;11.00;;;8.90;99.90;;;9.47;100.00;98460.94;4996300;28;20460;-77
2023/03/20 06:42:11;;;;;;;17.20;10.00;;;8.90;99.90;;;9.48;100.00;98472.97;4997305;28;20473;-77
2023/03/20 06:44:46;;;;;;;19.80;11.37;;;9.00;99.90;;;9.50;100.00;98478.06;4999058;28;20468;-77
2023/03/20 06:47:18;;;;;;;16.43;9.53;;;8.90;99.90;;;9.50;100.00;98478.88;4996776;28;20467;-77
2023/03/20 06:49:49;;;;;;;19.37;10.70;;;9.00;99.90;;;9.52;100.00;98468.25;4997459;28;20550;-77
2023/03/20 06:52:21;;;;;;;20.37;10.53;;;9.00;99.90;;;9.54;100.00;98467.06;4996938;28;20490;-77
2023/03/20 06:54:51;;;;;;;23.00;10.43;;;9.00;99.90;;;9.56;100.00;98472.97;4998197;28;20526;-77
2023/03/20 06:57:23;;;;;;;16.93;10.50;;;9.00;99.90;;;9.58;100.00;98478.81;4997939;28;20577;-77
2023/03/20 06:59:55;;;;;;;24.13;11.60;;;9.10;99.90;;;9.63;100.00;98482.72;4997918;28;20487;-77
2023/03/20 07:02:25;;;;;;;19.00;10.73;;;9.10;99.90;;;9.65;100.00;98478.94;4995691;28;20487;-77
2023/03/20 07:04:55;;;;;;;24.47;10.63;;;9.10;99.90;;;9.64;100.00;98476.53;4995632;28;20528;-77
2023/03/20 07:07:26;;;;;;;17.20;10.10;;;9.10;99.90;;;9.64;100.00;98479.13;4997415;28;21024;-77
2023/03/20 07:09:56;;;;;;;17.17;9.40;;;9.00;99.90;;;9.70;100.00;98486.28;4995934;28;21210;-77
2023/03/20 07:12:27;;;;;;;17.60;9.97;;;9.10;99.90;;;9.75;100.00;98478.75;4996786;28;20513;-77
2023/03/20 07:15:00;;;;;;;18.97;10.60;;;9.20;99.90;;;9.78;100.00;98481.84;4997304;28;20510;-77
2023/03/20 07:17:30;;;;;;;17.53;9.83;;;9.20;99.90;;;9.78;100.00;98479.22;4997338;28;20467;-77
2023/03/20 07:20:01;;;;;;;17.13;8.60;;;9.20;99.90;;;9.77;100.00;98489.84;5025738;28;20502;-77
2023/03/20 07:22:31;;;;;;;15.63;8.57;;;9.20;99.90;;;9.78;100.00;98481.84;4997530;28;20978;-77
2023/03/20 07:25:02;;;;;;;13.10;7.87;;;9.20;99.90;;;9.81;100.00;98483.28;4996398;28;20467;-77
2023/03/20 07:27:30;;;;;;;12.17;7.53;;;9.30;99.90;;;9.82;100.00;98488.31;4997040;28;20476;-77
2023/03/20 07:30:01;;;;;;;10.87;7.07;;;9.30;99.90;;;9.84;100.00;98480.34;4997391;28;20492;-77
2023/03/20 07:32:32;;;;;;;11.23;6.77;;;9.40;99.90;;;9.83;100.00;98487.34;4996649;28;20475;-77
2023/03/20 07:35:01;;;;;;;17.47;9.23;;;9.30;99.90;;;9.83;100.00;98482.13;4996025;28;20491;-77
2023/03/20 07:37:31;;;;;;;10.53;6.43;;;9.40;99.90;;;9.83;100.00;98476.09;4997816;28;20459;-77
2023/03/20 07:40:02;;;;;;;11.07;5.93;;;9.40;99.90;;;9.82;100.00;98483.09;4998284;28;20486;-76
2023/03/20 07:42:33;;;;;;;10.07;6.27;;;9.30;99.90;;;9.83;100.00;98468.25;4996615;28;21077;-77
2023/03/20 07:45:06;;;;;;;9.90;6.03;;;9.40;99.90;;;9.83;100.00;98476.91;4995845;28;20483;-77
2023/03/20 07:47:36;;;;;;;8.73;5.50;;;9.30;99.90;;;9.91;100.00;98489.09;4995947;28;20485;-77
2023/03/20 07:50:07;;;;;;;8.23;6.23;;;9.40;99.90;;;9.96;100.00;98492.03;4997200;28;20479;-78
2023/03/20 07:52:36;;;;;;;8.33;5.83;;;9.40;99.90;;;9.97;100.00;98493.63;4997723;28;20468;-77
2023/03/20 07:55:07;;;;;;;7.27;5.50;;;9.40;99.90;;;10.01;100.00;98508.00;4997806;28;20490;-77
2023/03/20 07:57:37;;;;;;;10.03;6.10;;;9.50;99.90;;;10.06;100.00;98505.69;4997615;28;20462;-78
2023/03/20 08:00:10;;;;;;;9.30;5.37;;;9.60;99.90;;;10.09;100.00;98500.13;4994213;28;21341;-78
2023/03/20 08:02:40;;;;;;;13.97;6.37;;;9.60;99.90;;;10.10;100.00;98509.56;4996538;28;20831;-78
2023/03/20 08:05:11;;;;;;;10.00;6.00;;;9.60;99.90;;;10.15;100.00;98506.47;4996285;28;20594;-78
2023/03/20 08:07:40;;;;;;;8.57;5.53;;;9.60;99.90;;;10.13;100.00;98504.81;4995697;28;20883;-78
2023/03/20 08:10:11;;;;;;;9.43;4.80;;;9.60;99.90;;;10.13;100.00;98517.09;4996592;28;20541;-78
2023/03/20 08:12:41;;;;;;;36.90;18.67;;;9.70;99.90;;;10.13;100.00;98507.41;4997027;28;20455;-75
2023/03/20 08:15:12;;;;;;;9.87;5.80;;;9.70;99.90;;;10.14;100.00;98510.88;4997461;28;20877;-78
2023/03/20 08:17:43;;;;;;;10.30;5.77;;;9.70;99.90;;;10.18;100.00;98511.34;4995627;28;20470;-78
2023/03/20 08:20:16;;;;;;;10.47;6.10;;;9.70;99.90;;;10.22;100.00;98507.41;4998058;28;20506;-78
2023/03/20 08:22:48;;;;;;;8.90;5.83;;;9.70;99.90;;;10.24;100.00;98506.25;4995067;28;20525;-78
2023/03/20 08:25:19;;;;;;;9.60;6.13;;;9.70;99.90;;;10.23;100.00;98515.09;4998343;28;20466;-78
2023/03/20 08:27:50;;;;;;;7.27;5.13;;;9.70;99.90;;;10.27;100.00;98511.16;4997131;28;21035;-78
2023/03/20 08:30:21;;;;;;;8.10;5.70;;;9.70;99.90;;;10.28;100.00;98512.75;4996962;28;20542;-78
2023/03/20 08:32:51;;;;;;;12.07;6.10;;;9.80;99.90;;;10.29;100.00;98514.38;4997779;28;21326;-78
2023/03/20 08:35:21;;;;;;;8.60;5.57;;;9.80;99.90;;;10.30;100.00;98517.81;4995925;28;20947;-78
2023/03/20 08:38:02;;;;;;;11.93;5.83;;;9.80;99.90;;;10.38;100.00;98528.19;4996412;28;20452;-78
2023/03/20 08:40:32;;;;;;;10.20;5.43;;;9.90;99.90;;;10.41;100.00;98517.41;4998689;28;20470;-78
2023/03/20 08:43:02;;;;;;;7.00;4.97;;;10.00;99.90;;;10.37;100.00;98529.22;4996267;28;20462;-78
2023/03/20 08:45:32;;;;;;;8.13;5.10;;;9.90;99.90;;;10.40;100.00;98527.06;4998120;28;20459;-77
2023/03/20 08:48:04;;;;;;;10.43;6.37;;;9.90;99.90;;;10.39;100.00;98530.66;4998366;28;20482;-78
2023/03/20 08:50:34;;;;;;;12.47;7.33;;;9.90;99.90;;;10.42;100.00;98540.75;5003058;28;20470;-78
2023/03/20 08:53:04;;;;;;;8.70;4.90;;;9.90;99.90;;;10.48;100.00;98536.66;5004860;28;20554;-78
2023/03/20 08:55:34;;;;;;;13.87;6.00;;;10.00;99.90;;;10.44;100.00;98540.59;5001546;28;20497;-78
2023/03/20 08:58:04;;;;;;;6.70;4.53;;;9.90;99.90;;;10.50;100.00;98542.50;5000863;28;20456;-78
2023/03/20 09:00:36;;;;;;;8.03;5.20;;;10.00;99.90;;;10.50;100.00;98543.34;5000754;28;20597;-78
2023/03/20 09:03:06;;;;;;;10.30;5.40;;;9.90;99.90;;;10.52;100.00;98528.28;5000107;28;20553;-78
2023/03/20 09:05:37;;;;;;;14.40;7.47;;;10.00;99.90;;;10.54;100.00;98533.34;5001334;28;20470;-78
2023/03/20 09:08:08;;;;;;;10.53;6.47;;;10.00;99.90;;;10.54;100.00;98531.53;5001972;28;20459;-78
2023/03/20 09:10:37;;;;;;;7.40;5.10;;;10.00;99.90;;;10.62;100.00;98528.03;5000650;28;20500;-78
2023/03/20 09:13:07;;;;;;;9.20;5.03;;;10.00;99.90;;;10.62;100.00;98528.03;5001246;28;21081;-78
2023/03/20 09:15:57;;;;;;;7.73;5.40;;;10.00;99.90;;;10.64;100.00;98528.69;5001900;28;20489;-78
2023/03/20 09:18:26;;;;;;;8.97;5.07;;;10.10;99.90;;;10.66;100.00;98531.94;5000975;28;20468;-78
2023/03/20 09:20:56;;;;;;;6.03;4.83;;;10.10;99.90;;;10.71;100.00;98537.47;5002434;28;20497;-78
2023/03/20 09:23:25;;;;;;;6.20;4.57;;;10.20;99.90;;;10.78;100.00;98540.19;5000064;28;20491;-78
2023/03/20 09:25:54;;;;;;;8.60;5.80;;;10.30;99.90;;;10.71;100.00;98541.88;5000341;28;20483;-78
2023/03/20 09:28:24;;;;;;;9.43;5.07;;;10.20;99.90;;;10.79;100.00;98541.81;4999987;28;20458;-78
2023/03/20 09:30:59;;;;;;;10.33;4.90;;;10.30;99.90;;;10.81;100.00;98550.28;5000499;28;21455;-78
2023/03/20 09:33:29;;;;;;;7.50;4.67;;;10.30;99.90;;;10.86;100.00;98553.19;5002850;28;20562;-78
2023/03/20 09:35:58;;;;;;;7.20;4.83;;;10.40;99.90;;;10.84;100.00;98555.16;5000987;28;20518;-78
2023/03/20 09:38:28;;;;;;;10.50;4.57;;;10.30;99.90;;;10.77;100.00;98549.00;5001122;28;20467;-78
2023/03/20 09:40:59;;;;;;;8.23;5.50;;;10.30;99.90;;;10.75;100.00;98556.22;5000029;28;20535;-78
2023/03/20 09:43:51;;;;;;;8.30;4.70;;;10.30;99.90;;;10.69;100.00;98557.72;4999939;28;20462;-78
2023/03/20 09:46:48;;;;;;;7.03;5.03;;;10.20;99.90;;;10.67;100.00;98559.72;5000775;28;20993;-78
2023/03/20 09:49:39;;;;;;;8.40;5.57;;;10.10;99.90;;;10.68;100.00;98555.31;4997483;28;20463;-78
2023/03/20 09:52:24;;;;;;;10.87;5.77;;;10.10;99.90;;;10.66;100.00;98550.22;4999741;28;20475;-78
2023/03/20 09:54:59;;;;;;;11.13;5.83;;;10.10;99.90;;;10.67;100.00;98553.66;5001203;28;20511;-77
2023/03/20 09:57:35;;;;;;;11.10;5.97;;;10.10;99.90;;;10.65;100.00;98558.28;4999415;28;20572;-78
2023/03/20 10:00:13;;;;;;;9.03;5.33;;;10.10;99.90;;;10.63;100.00;98562.84;4998401;28;20493;-78
2023/03/20 10:02:53;;;;;;;7.37;5.03;;;10.10;99.90;;;10.72;100.00;98564.44;5000690;28;20549;-78
2023/03/20 10:05:27;;;;;;;6.90;5.00;;;10.20;99.90;;;10.77;100.00;98562.91;5000970;28;20467;-78
2023/03/20 10:08:02;;;;;;;6.70;4.53;;;10.20;99.90;;;10.81;100.00;98558.13;4998184;28;20549;-78
2023/03/20 10:10:47;;;;;;;9.20;5.20;;;10.30;99.90;;;10.85;100.00;98556.81;5000041;28;20478;-78
2023/03/20 10:13:58;;;;;;;8.50;5.03;;;10.30;99.90;;;10.87;100.00;98554.81;5003587;28;20891;-78
2023/03/20 10:16:46;;;;;;;6.77;4.67;;;10.30;99.90;;;10.87;100.00;98554.81;5004141;28;20483;-78
2023/03/20 10:19:27;;;;;;;10.10;4.87;;;10.30;99.90;;;10.90;100.00;98551.84;5002369;28;20549;-78
2023/03/20 10:22:02;;;;;;;7.20;4.90;;;10.30;99.90;;;10.96;100.00;98559.00;5003442;28;20857;-78
2023/03/20 10:24:39;;;;;;;6.87;4.30;;;10.40;99.90;;;10.97;100.00;98556.19;5004167;28;20536;-78
2023/03/20 10:27:22;;;;;;;3.43;2.80;;;10.50;99.90;;;11.00;100.00;98547.19;5001800;28;20471;-78
2023/03/20 10:30:18;;;;;;;7.60;3.50;;;10.60;99.90;;;10.99;100.00;98553.41;5003423;28;20474;-78
2023/03/20 10:32:58;;;;;;;5.90;2.90;;;10.50;99.90;;;11.04;100.00;98545.81;4999282;28;20486;-78
2023/03/20 10:35:39;;;;;;;4.60;3.17;;;10.60;99.90;;;11.10;100.00;98545.13;5000029;28;20463;-78
2023/03/20 10:38:26;;;;;;;7.20;3.07;;;10.70;99.90;;;11.18;100.00;98547.66;4999876;28;20487;-79
2023/03/20 10:40:59;;;;;;;4.10;2.77;;;10.70;99.90;;;11.21;100.00;98539.44;5000190;28;20463;-78
2023/03/20 10:43:33;;;;;;;3.53;2.80;;;10.80;99.90;;;11.26;100.00;98546.78;4999461;28;20546;-78
2023/03/20 10:46:15;;;;;;;6.47;3.40;;;10.80;99.90;;;11.29;100.00;98533.31;4999426;28;20459;-78
2023/03/20 10:48:50;;;;;;;5.57;3.00;;;10.80;99.90;;;11.25;100.00;98538.09;4999644;28;20473;-78